Terminal Aerodrome Forecast
Issued by NWS Topeka, KS

Home | Current Version | Previous Version | Text Only | Print | Product List | Glossary Off
Versions: 1 2 3 4 5 6 7 8 9 10 11 12 13 14 15 16 17

000
FTUS43 KTOP 271120
TAFTOP
TAF
KTOP 271120Z 2712/2812 01005KT P6SM BKN011
      TEMPO 2712/2714 OVC009
     FM271500 02010KT P6SM BKN020
     FM271900 02010KT P6SM BKN045
     FM280300 01005KT P6SM SCT080=

USA.gov is the U.S. government's official web portal to all federal, state and local government web resources and services.